createdAt,value
2023-05-16T00:01:13.780Z,37.00
2023-05-16T00:03:43.163Z,36.80
2023-05-16T00:06:11.697Z,36.80
2023-05-16T00:08:41.068Z,37.30
2023-05-16T00:11:09.516Z,37.40
2023-05-16T00:13:39.184Z,37.30
2023-05-16T00:16:09.066Z,37.50
2023-05-16T00:18:38.949Z,37.00
2023-05-16T00:21:08.595Z,37.00
2023-05-16T00:23:37.107Z,37.40
2023-05-16T00:26:06.520Z,37.20
2023-05-16T00:28:35.175Z,36.90
2023-05-16T00:31:04.032Z,37.30
2023-05-16T00:33:34.970Z,37.40
2023-05-16T00:36:03.741Z,37.20
2023-05-16T00:38:35.200Z,37.00
2023-05-16T00:41:04.405Z,37.00
2023-05-16T00:43:34.622Z,37.20
2023-05-16T00:46:03.781Z,37.20
2023-05-16T00:48:33.756Z,37.60
2023-05-16T00:51:02.632Z,37.20
2023-05-16T00:53:32.105Z,37.80
2023-05-16T00:56:00.971Z,37.40
2023-05-16T00:58:32.194Z,37.80
2023-05-16T01:01:02.121Z,37.90
2023-05-16T01:03:34.803Z,38.10
2023-05-16T01:06:07.755Z,38.00
2023-05-16T01:08:36.783Z,38.00
2023-05-16T01:11:13.563Z,37.90
2023-05-16T01:13:49.426Z,38.30
2023-05-16T01:16:23.419Z,38.30
2023-05-16T01:19:09.612Z,38.40
2023-05-16T01:21:45.827Z,38.30
2023-05-16T01:24:22.354Z,38.60
2023-05-16T01:26:53.850Z,38.80
2023-05-16T01:29:22.646Z,38.60
2023-05-16T01:31:51.252Z,39.00
2023-05-16T01:34:19.792Z,38.70
2023-05-16T01:37:00.133Z,39.20
2023-05-16T01:39:35.645Z,38.80
2023-05-16T01:42:08.783Z,39.00
2023-05-16T01:44:42.428Z,38.80
2023-05-16T01:47:14.173Z,39.00
2023-05-16T01:49:47.476Z,38.80
2023-05-16T01:52:20.611Z,38.80
2023-05-16T01:54:50.825Z,38.90
2023-05-16T01:57:25.461Z,38.80
2023-05-16T01:59:54.808Z,38.90
2023-05-16T02:02:24.062Z,38.70
2023-05-16T02:04:53.081Z,38.70
2023-05-16T02:07:22.108Z,39.40
2023-05-16T02:09:51.468Z,39.50
2023-05-16T02:12:21.604Z,39.00
2023-05-16T02:14:50.687Z,38.90
2023-05-16T02:17:19.074Z,38.80
2023-05-16T02:19:47.991Z,38.90
2023-05-16T02:22:16.497Z,39.30
2023-05-16T02:24:45.674Z,38.90
2023-05-16T02:27:14.274Z,39.10
2023-05-16T02:29:44.485Z,38.90
2023-05-16T02:32:12.927Z,39.00
2023-05-16T02:34:41.639Z,38.60
2023-05-16T02:37:13.114Z,39.20
2023-05-16T02:39:41.875Z,39.30
2023-05-16T02:42:10.324Z,39.10
2023-05-16T02:44:40.339Z,38.80
2023-05-16T02:47:10.189Z,38.90
2023-05-16T02:49:40.073Z,39.30
2023-05-16T02:52:09.001Z,39.20
2023-05-16T02:54:39.431Z,39.10
2023-05-16T02:57:07.673Z,39.50
2023-05-16T02:59:36.247Z,39.20
2023-05-16T03:02:07.286Z,39.40
2023-05-16T03:04:37.946Z,39.40
2023-05-16T03:07:07.026Z,39.50
2023-05-16T03:09:36.112Z,39.30
2023-05-16T03:12:06.595Z,39.80
2023-05-16T03:14:35.907Z,40.10
2023-05-16T03:17:04.890Z,40.70
2023-05-16T03:19:33.538Z,41.00
2023-05-16T03:22:04.263Z,41.00
2023-05-16T03:24:32.898Z,41.20
2023-05-16T03:27:01.751Z,41.30
2023-05-16T03:29:30.670Z,41.90
2023-05-16T03:31:59.500Z,41.10
2023-05-16T03:34:28.185Z,41.10
2023-05-16T03:36:56.868Z,41.50
2023-05-16T03:39:26.654Z,41.50
2023-05-16T03:41:56.488Z,41.20
2023-05-16T03:44:24.982Z,41.10
2023-05-16T03:46:54.323Z,40.90
2023-05-16T03:49:28.596Z,41.10
2023-05-16T03:51:57.514Z,41.00
2023-05-16T03:54:27.413Z,41.00
2023-05-16T03:56:55.783Z,40.90
2023-05-16T03:59:24.342Z,41.30
2023-05-16T04:01:52.778Z,41.30
2023-05-16T04:04:21.474Z,41.20
2023-05-16T04:06:49.868Z,41.80
2023-05-16T04:09:18.743Z,41.70
2023-05-16T04:11:48.593Z,42.00
2023-05-16T04:14:17.323Z,41.80
2023-05-16T04:16:46.083Z,41.30
2023-05-16T04:19:14.786Z,41.40
2023-05-16T04:21:43.407Z,41.40
2023-05-16T04:24:12.078Z,40.90
2023-05-16T04:26:41.340Z,41.20
2023-05-16T04:29:11.850Z,40.90
2023-05-16T04:31:40.468Z,40.60
2023-05-16T04:34:10.005Z,40.70
2023-05-16T04:36:38.630Z,40.70
2023-05-16T04:39:07.656Z,40.50
2023-05-16T04:41:36.332Z,40.50
2023-05-16T04:44:05.461Z,40.60
2023-05-16T04:46:35.223Z,40.50
2023-05-16T04:49:03.962Z,40.40
2023-05-16T04:51:33.873Z,40.60
2023-05-16T04:54:02.486Z,40.80
2023-05-16T04:56:30.938Z,40.50
2023-05-16T04:58:59.415Z,40.60
2023-05-16T05:01:27.887Z,40.40
2023-05-16T05:03:58.173Z,40.30
2023-05-16T05:06:27.017Z,40.40
2023-05-16T05:08:57.796Z,40.50
2023-05-16T05:11:28.450Z,40.60
2023-05-16T05:13:57.066Z,40.40
2023-05-16T05:16:26.095Z,41.00
2023-05-16T05:18:54.691Z,40.50
2023-05-16T05:21:25.509Z,40.50
2023-05-16T05:23:53.793Z,40.90
2023-05-16T05:26:22.810Z,40.40
2023-05-16T05:29:03.902Z,40.70
2023-05-16T05:31:35.305Z,40.10
2023-05-16T05:34:04.301Z,40.50
2023-05-16T05:36:34.581Z,40.60
2023-05-16T05:39:03.143Z,40.60
2023-05-16T05:41:32.216Z,41.10
2023-05-16T05:44:00.670Z,41.20
2023-05-16T05:46:41.945Z,41.00
2023-05-16T05:49:10.679Z,40.70
2023-05-16T05:51:40.840Z,40.80
2023-05-16T05:54:09.831Z,41.20
2023-05-16T05:56:38.901Z,40.40
2023-05-16T05:59:07.559Z,40.80
2023-05-16T06:01:36.100Z,40.50
2023-05-16T06:04:04.894Z,40.60
2023-05-16T06:06:33.685Z,40.50
2023-05-16T06:09:03.915Z,40.40
2023-05-16T06:11:32.641Z,40.60
2023-05-16T06:14:01.353Z,40.60
2023-05-16T06:16:30.005Z,40.90
2023-05-16T06:18:58.923Z,41.10
2023-05-16T06:21:27.559Z,41.10
2023-05-16T06:23:56.339Z,40.80
2023-05-16T06:26:26.664Z,41.10
2023-05-16T06:28:55.879Z,41.30
2023-05-16T06:31:24.482Z,41.10
2023-05-16T06:33:52.991Z,41.10
2023-05-16T06:36:21.453Z,41.20
2023-05-16T06:38:51.091Z,41.10
2023-05-16T06:41:19.518Z,40.90
2023-05-16T06:43:49.536Z,41.30
2023-05-16T06:46:19.056Z,40.90
2023-05-16T06:48:47.691Z,40.70
2023-05-16T06:51:16.260Z,41.10
2023-05-16T06:53:44.690Z,40.90
2023-05-16T06:56:13.095Z,41.20
2023-05-16T06:58:42.240Z,40.70
2023-05-16T07:01:13.362Z,40.70
2023-05-16T07:03:41.967Z,41.10
2023-05-16T07:06:10.524Z,41.20
2023-05-16T07:08:38.986Z,40.80
2023-05-16T07:11:07.729Z,40.60
2023-05-16T07:13:36.693Z,40.90
2023-05-16T07:16:08.101Z,41.00
2023-05-16T07:18:37.997Z,40.70
2023-05-16T07:21:07.411Z,40.30
2023-05-16T07:23:35.959Z,40.40
2023-05-16T07:26:04.847Z,40.50
2023-05-16T07:28:33.136Z,40.70
2023-05-16T07:31:01.568Z,40.20
2023-05-16T07:33:29.883Z,39.90
2023-05-16T07:36:12.096Z,40.10
2023-05-16T07:38:44.466Z,39.70
2023-05-16T07:41:12.958Z,39.70
2023-05-16T07:43:41.207Z,39.70
2023-05-16T07:46:09.734Z,39.50
2023-05-16T07:48:38.273Z,39.50
2023-05-16T07:51:08.229Z,39.30
2023-05-16T07:53:36.765Z,39.50
2023-05-16T07:58:33.873Z,39.20
2023-05-16T08:01:03.080Z,39.20
2023-05-16T08:03:31.725Z,39.00
2023-05-16T08:06:00.366Z,39.10
2023-05-16T08:08:30.027Z,39.20
2023-05-16T08:10:58.612Z,38.90
2023-05-16T08:13:28.027Z,38.80
2023-05-16T08:15:56.594Z,38.20
2023-05-16T08:18:25.431Z,38.40
2023-05-16T08:20:53.932Z,38.20
2023-05-16T08:23:22.597Z,38.20
2023-05-16T08:25:52.293Z,38.00
2023-05-16T08:28:20.581Z,37.90
2023-05-16T08:30:49.042Z,37.50
2023-05-16T08:33:17.513Z,37.20
2023-05-16T08:35:46.325Z,37.20
2023-05-16T08:38:14.760Z,36.70
2023-05-16T08:40:44.322Z,36.80
2023-05-16T08:43:14.293Z,37.00
2023-05-16T08:45:42.840Z,36.70
2023-05-16T08:48:12.494Z,36.80
2023-05-16T08:50:42.777Z,36.80
2023-05-16T08:53:15.748Z,36.50
2023-05-16T08:55:46.576Z,36.90
2023-05-16T08:58:16.916Z,36.90
2023-05-16T09:00:45.499Z,36.50
2023-05-16T09:03:16.045Z,36.70
2023-05-16T09:05:44.627Z,36.70
2023-05-16T09:08:13.089Z,36.60
2023-05-16T09:10:41.254Z,36.40
2023-05-16T09:13:10.666Z,37.00
2023-05-16T09:15:40.237Z,36.50
2023-05-16T09:18:14.559Z,36.50
2023-05-16T09:20:47.763Z,36.70
2023-05-16T09:23:17.116Z,36.10
2023-05-16T09:25:45.723Z,36.40
2023-05-16T09:28:14.057Z,36.50
2023-05-16T09:30:48.841Z,36.40
2023-05-16T09:33:17.889Z,36.50
2023-05-16T09:35:46.966Z,36.00
2023-05-16T09:38:16.852Z,35.90
2023-05-16T09:40:46.118Z,34.40
2023-05-16T09:43:18.223Z,34.80
2023-05-16T09:45:49.829Z,36.10
2023-05-16T09:48:19.018Z,36.20
2023-05-16T09:50:53.129Z,34.80
2023-05-16T09:53:27.693Z,34.70
2023-05-16T09:56:04.961Z,34.30
2023-05-16T09:58:34.907Z,34.60
2023-05-16T10:01:05.787Z,34.60
2023-05-16T10:03:36.980Z,35.30
2023-05-16T10:06:06.897Z,35.80
2023-05-16T10:08:36.831Z,35.90
2023-05-16T10:11:07.591Z,35.90
2023-05-16T10:13:37.798Z,35.90
2023-05-16T10:16:12.868Z,36.20
2023-05-16T10:18:42.410Z,36.30
2023-05-16T10:21:17.038Z,36.40
2023-05-16T10:23:49.902Z,36.40
2023-05-16T10:26:19.356Z,36.60
2023-05-16T10:28:48.072Z,36.40
2023-05-16T10:31:18.704Z,36.40
2023-05-16T10:33:48.340Z,36.70
2023-05-16T10:36:18.621Z,37.00
2023-05-16T10:38:48.730Z,36.90
2023-05-16T10:41:18.054Z,37.00
2023-05-16T10:43:56.944Z,37.20
2023-05-16T10:46:29.145Z,37.10
2023-05-16T10:48:58.896Z,36.70
2023-05-16T10:51:45.132Z,37.30
2023-05-16T10:54:15.370Z,37.10
2023-05-16T10:56:44.221Z,36.80
2023-05-16T10:59:26.205Z,37.20
2023-05-16T11:01:57.457Z,36.90
2023-05-16T11:04:49.865Z,36.80
2023-05-16T11:07:20.716Z,36.70
2023-05-16T11:10:04.477Z,36.80
2023-05-16T11:12:44.404Z,37.10
2023-05-16T11:15:20.698Z,36.80
2023-05-16T11:17:49.106Z,36.80
2023-05-16T11:20:37.993Z,37.00
2023-05-16T11:23:26.414Z,37.00
2023-05-16T11:25:57.302Z,36.90
2023-05-16T11:28:26.910Z,36.90
2023-05-16T11:30:57.899Z,36.90
2023-05-16T11:33:27.736Z,36.70
2023-05-16T11:36:15.107Z,36.70
2023-05-16T11:38:44.483Z,36.50
2023-05-16T11:41:16.193Z,36.60
2023-05-16T11:43:45.825Z,36.70
2023-05-16T11:46:14.688Z,36.90
2023-05-16T11:48:46.633Z,36.60
2023-05-16T11:51:20.487Z,36.50
2023-05-16T11:53:50.231Z,36.80
2023-05-16T11:56:19.558Z,36.90
2023-05-16T11:58:49.540Z,36.40
2023-05-16T12:01:22.057Z,36.50
2023-05-16T12:03:57.165Z,36.70
2023-05-16T12:06:27.314Z,36.70
2023-05-16T12:08:56.271Z,36.60
2023-05-16T12:11:25.186Z,36.50
2023-05-16T12:13:53.993Z,36.80
2023-05-16T12:16:22.785Z,37.10
2023-05-16T12:18:51.413Z,36.90
2023-05-16T12:21:20.147Z,37.00
2023-05-16T12:23:50.472Z,36.90
2023-05-16T12:26:27.525Z,36.90
2023-05-16T12:28:58.045Z,37.10
2023-05-16T12:31:31.855Z,36.90
2023-05-16T12:34:01.407Z,37.10
2023-05-16T12:36:34.728Z,37.20
2023-05-16T12:39:05.596Z,37.20
2023-05-16T12:41:34.030Z,37.10
2023-05-16T12:44:12.268Z,36.90
2023-05-16T12:46:44.961Z,37.60
2023-05-16T12:49:14.659Z,37.30
2023-05-16T12:51:50.249Z,37.40
2023-05-16T12:54:20.850Z,37.50
2023-05-16T12:56:49.899Z,37.50
2023-05-16T12:59:20.193Z,37.10
2023-05-16T13:01:51.102Z,37.00
2023-05-16T13:04:20.568Z,37.00
2023-05-16T13:06:59.364Z,37.00
2023-05-16T13:09:32.776Z,37.10
2023-05-16T13:12:01.953Z,36.90
2023-05-16T13:14:30.374Z,36.90
2023-05-16T13:16:58.891Z,36.90
2023-05-16T13:19:27.440Z,36.90
2023-05-16T13:21:56.179Z,36.90
2023-05-16T13:24:25.671Z,36.90
2023-05-16T13:26:55.208Z,36.80
2023-05-16T13:29:23.617Z,37.30
2023-05-16T13:31:52.311Z,36.80
2023-05-16T13:34:20.920Z,37.00
2023-05-16T13:36:54.327Z,37.40
2023-05-16T13:39:23.789Z,37.20
2023-05-16T13:41:53.208Z,37.30
2023-05-16T13:44:26.292Z,37.10
2023-05-16T13:46:55.122Z,37.00
2023-05-16T13:49:23.734Z,37.00
2023-05-16T13:51:53.107Z,36.90
2023-05-16T13:54:22.887Z,36.70
2023-05-16T13:56:51.420Z,36.70
2023-05-16T13:59:31.873Z,36.50
2023-05-16T14:02:08.015Z,36.80
2023-05-16T14:04:36.685Z,36.50
2023-05-16T14:07:05.566Z,36.50
2023-05-16T14:09:35.141Z,36.40
2023-05-16T14:12:04.327Z,35.90
2023-05-16T14:14:32.979Z,35.90
2023-05-16T14:17:01.768Z,35.90
2023-05-16T14:19:32.018Z,36.00
2023-05-16T14:22:00.880Z,35.80
2023-05-16T14:24:29.285Z,35.80
2023-05-16T14:26:57.681Z,35.70
2023-05-16T14:29:26.541Z,35.50
2023-05-16T14:31:55.194Z,35.40
2023-05-16T14:34:24.580Z,35.40
2023-05-16T14:36:54.802Z,35.60
2023-05-16T14:39:23.251Z,35.50
2023-05-16T14:41:53.497Z,35.60
2023-05-16T14:44:24.658Z,35.20
2023-05-16T14:46:53.286Z,34.90
2023-05-16T14:49:21.887Z,35.10
2023-05-16T14:51:51.099Z,34.90
2023-05-16T14:54:21.350Z,34.80
2023-05-16T14:56:49.883Z,34.30
2023-05-16T14:59:18.388Z,34.50
2023-05-16T15:01:46.946Z,34.10
2023-05-16T15:04:15.880Z,34.00
2023-05-16T15:06:44.275Z,34.10
2023-05-16T15:09:12.876Z,33.80
2023-05-16T15:11:42.802Z,33.90
2023-05-16T15:14:11.379Z,34.10
2023-05-16T15:16:41.024Z,34.00
2023-05-16T15:19:09.668Z,34.20
2023-05-16T15:21:38.698Z,34.00
2023-05-16T15:24:08.416Z,33.90
2023-05-16T15:26:37.590Z,34.10
2023-05-16T15:29:07.549Z,33.70
2023-05-16T15:31:36.716Z,33.70
2023-05-16T15:34:06.654Z,34.00
2023-05-16T15:36:35.180Z,33.70
2023-05-16T15:39:03.852Z,33.50
2023-05-16T15:44:07.119Z,33.90
2023-05-16T15:46:35.752Z,33.40
2023-05-16T15:49:04.279Z,32.20
2023-05-16T15:51:33.071Z,32.60
2023-05-16T15:54:01.619Z,33.60
2023-05-16T15:56:30.638Z,33.60
2023-05-16T15:58:59.533Z,32.60
2023-05-16T16:01:29.525Z,34.30
2023-05-16T16:03:58.355Z,33.50
2023-05-16T16:06:27.121Z,32.90
2023-05-16T16:08:55.854Z,32.90
2023-05-16T16:11:25.118Z,33.00
2023-05-16T16:13:53.641Z,33.00
2023-05-16T16:16:22.582Z,32.10
2023-05-16T16:18:52.512Z,33.30
2023-05-16T16:21:21.647Z,33.20
2023-05-16T16:23:50.176Z,31.80
2023-05-16T16:26:18.814Z,31.70
2023-05-16T16:28:47.617Z,32.50
2023-05-16T16:31:16.438Z,31.50
2023-05-16T16:33:45.103Z,31.70
2023-05-16T16:36:14.946Z,31.40
2023-05-16T16:38:43.663Z,31.30
2023-05-16T16:41:14.306Z,32.00
2023-05-16T16:43:42.814Z,31.90
2023-05-16T16:46:11.615Z,31.60
2023-05-16T16:48:40.155Z,31.00
2023-05-16T16:51:08.781Z,31.30
2023-05-16T16:53:38.793Z,31.30
2023-05-16T16:56:08.295Z,30.50
2023-05-16T16:58:36.832Z,29.70
2023-05-16T17:01:05.711Z,30.10
2023-05-16T17:03:34.235Z,29.40
2023-05-16T17:06:02.995Z,29.30
2023-05-16T17:08:31.808Z,29.00
2023-05-16T17:11:05.357Z,29.30
2023-05-16T17:13:37.400Z,29.30
2023-05-16T17:16:07.071Z,29.00
2023-05-16T17:18:36.793Z,28.80
2023-05-16T17:21:05.678Z,28.70
2023-05-16T17:23:34.506Z,28.60
2023-05-16T17:26:04.521Z,28.90
2023-05-16T17:28:33.281Z,28.50
2023-05-16T17:31:02.120Z,28.10
2023-05-16T17:33:31.223Z,28.10
2023-05-16T17:35:59.747Z,28.50
2023-05-16T17:38:28.239Z,28.90
2023-05-16T17:40:56.746Z,28.20
2023-05-16T17:43:26.386Z,28.10
2023-05-16T17:45:54.914Z,27.50
2023-05-16T17:48:23.836Z,27.40
2023-05-16T17:50:52.492Z,26.90
2023-05-16T17:53:21.016Z,26.50
2023-05-16T17:55:49.865Z,25.60
2023-05-16T17:58:19.012Z,25.90
2023-05-16T18:00:49.536Z,26.00
2023-05-16T18:03:18.243Z,26.60
2023-05-16T18:05:46.899Z,26.90
2023-05-16T18:08:15.344Z,26.40
2023-05-16T18:13:18.934Z,26.50
2023-05-16T18:15:49.104Z,26.60
2023-05-16T18:18:18.153Z,26.60
2023-05-16T18:20:47.093Z,27.00
2023-05-16T18:23:16.518Z,27.00
2023-05-16T18:25:45.015Z,26.90
2023-05-16T18:28:13.838Z,27.50
2023-05-16T18:30:42.312Z,27.00
2023-05-16T18:33:12.486Z,26.80
2023-05-16T18:35:41.026Z,26.80
2023-05-16T18:38:17.389Z,27.30
2023-05-16T18:40:57.096Z,27.30
2023-05-16T18:43:25.556Z,27.50
2023-05-16T18:45:54.609Z,28.00
2023-05-16T18:48:24.540Z,28.10
2023-05-16T18:50:53.800Z,27.60
2023-05-16T18:53:22.151Z,28.00
2023-05-16T18:55:50.913Z,28.10
2023-05-16T18:58:20.076Z,28.10
2023-05-16T19:00:48.583Z,28.40
2023-05-16T19:03:17.512Z,28.00
2023-05-16T19:05:47.590Z,27.80
2023-05-16T19:08:16.539Z,27.80
2023-05-16T19:10:45.039Z,27.50
2023-05-16T19:13:13.337Z,27.30
2023-05-16T19:15:41.876Z,27.20
2023-05-16T19:18:10.201Z,27.50
2023-05-16T19:20:38.918Z,27.60
2023-05-16T19:23:08.678Z,27.30
2023-05-16T19:25:37.123Z,27.00
2023-05-16T19:28:06.194Z,27.50
2023-05-16T19:30:34.612Z,27.90
2023-05-16T19:33:03.590Z,27.80
2023-05-16T19:35:32.704Z,28.00
2023-05-16T19:38:01.688Z,28.80
2023-05-16T19:40:31.606Z,29.10
2023-05-16T19:43:00.000Z,29.50
2023-05-16T19:45:29.078Z,29.40
2023-05-16T19:47:57.635Z,29.30
2023-05-16T19:50:26.426Z,29.40
2023-05-16T19:52:54.916Z,29.50
2023-05-16T19:55:23.578Z,29.80
2023-05-16T19:57:53.765Z,29.50
2023-05-16T20:00:22.330Z,29.60
2023-05-16T20:02:51.549Z,29.90
2023-05-16T20:05:23.244Z,30.00
2023-05-16T20:07:53.351Z,30.00
2023-05-16T20:10:22.204Z,30.30
2023-05-16T20:12:51.516Z,30.30
2023-05-16T20:15:22.043Z,30.60
2023-05-16T20:17:50.657Z,30.90
2023-05-16T20:20:19.118Z,30.70
2023-05-16T20:22:47.680Z,31.00
2023-05-16T20:25:16.133Z,30.30
2023-05-16T20:27:44.595Z,30.70
2023-05-16T20:30:13.991Z,30.80
2023-05-16T20:32:43.934Z,31.10
2023-05-16T20:35:12.337Z,31.20
2023-05-16T20:37:41.446Z,30.70
2023-05-16T20:40:10.998Z,30.90
2023-05-16T20:42:39.490Z,31.00
2023-05-16T20:45:09.665Z,31.20
2023-05-16T20:47:38.604Z,31.30
2023-05-16T20:50:10.048Z,31.40
2023-05-16T20:52:38.616Z,31.60
2023-05-16T20:55:07.885Z,31.70
2023-05-16T20:57:36.487Z,31.50
2023-05-16T21:00:05.691Z,31.90
2023-05-16T21:02:34.581Z,31.90
2023-05-16T21:05:19.726Z,32.20
2023-05-16T21:07:53.911Z,32.00
2023-05-16T21:10:22.320Z,32.30
2023-05-16T21:12:51.368Z,32.10
2023-05-16T21:15:24.999Z,32.10
2023-05-16T21:17:53.575Z,32.20
2023-05-16T21:20:21.917Z,32.10
2023-05-16T21:22:50.612Z,32.00
2023-05-16T21:25:20.362Z,32.20
2023-05-16T21:27:48.843Z,32.10
2023-05-16T21:30:17.472Z,32.10
2023-05-16T21:32:45.959Z,32.30
2023-05-16T21:35:14.463Z,32.70
2023-05-16T21:37:42.801Z,32.60
2023-05-16T21:40:14.862Z,32.50
2023-05-16T21:42:44.872Z,32.50
2023-05-16T21:45:16.563Z,32.70
2023-05-16T21:47:45.206Z,33.10
2023-05-16T21:50:14.406Z,33.00
2023-05-16T21:52:43.090Z,32.90
2023-05-16T21:55:11.733Z,32.80
2023-05-16T21:57:40.496Z,33.40
2023-05-16T22:00:11.669Z,33.50
2023-05-16T22:02:40.331Z,33.50
2023-05-16T22:05:09.845Z,33.30
2023-05-16T22:07:38.490Z,33.30
2023-05-16T22:10:08.662Z,33.10
2023-05-16T22:12:37.542Z,32.90
2023-05-16T22:15:07.002Z,33.10
2023-05-16T22:17:37.487Z,33.00
2023-05-16T22:20:07.446Z,33.30
2023-05-16T22:22:36.291Z,33.40
2023-05-16T22:25:05.642Z,33.10
2023-05-16T22:27:34.155Z,33.00
2023-05-16T22:30:02.577Z,33.30
2023-05-16T22:32:31.227Z,33.20
2023-05-16T22:35:00.980Z,33.40
2023-05-16T22:37:29.591Z,33.10
2023-05-16T22:40:55.959Z,33.40
2023-05-16T22:43:24.472Z,33.00
2023-05-16T22:45:52.998Z,33.50
2023-05-16T22:48:21.362Z,33.40
2023-05-16T22:50:51.425Z,33.30
2023-05-16T22:53:20.648Z,33.50
2023-05-16T22:55:49.046Z,33.20
2023-05-16T22:58:18.032Z,33.70
2023-05-16T23:00:46.381Z,33.80
2023-05-16T23:03:15.056Z,33.80
2023-05-16T23:05:43.416Z,34.00
2023-05-16T23:08:13.375Z,33.90
2023-05-16T23:10:41.693Z,34.20
2023-05-16T23:13:10.190Z,34.20
2023-05-16T23:15:38.691Z,34.30
2023-05-16T23:18:07.967Z,34.20
2023-05-16T23:20:36.480Z,34.60
2023-05-16T23:23:04.932Z,34.50
2023-05-16T23:25:34.673Z,34.20
2023-05-16T23:28:03.154Z,34.40
2023-05-16T23:30:31.452Z,34.10
2023-05-16T23:33:00.362Z,34.20
2023-05-16T23:35:28.897Z,34.40
2023-05-16T23:37:57.729Z,34.20
2023-05-16T23:40:26.185Z,34.50
2023-05-16T23:42:56.216Z,34.10
2023-05-16T23:45:24.665Z,34.90
2023-05-16T23:47:53.192Z,34.80
2023-05-16T23:50:23.500Z,34.90
2023-05-16T23:52:51.918Z,34.80
2023-05-16T23:55:20.945Z,35.20
2023-05-16T23:57:49.486Z,35.20
